createdAt,value
2023-04-18T00:00:14.094Z,0.63
2023-04-18T00:01:14.106Z,0.65
2023-04-18T00:02:14.203Z,0.66
2023-04-18T00:03:14.339Z,0.64
2023-04-18T00:04:14.551Z,0.65
2023-04-18T00:05:14.302Z,0.65
2023-04-18T00:06:14.289Z,0.63
2023-04-18T00:07:14.298Z,0.65
2023-04-18T00:08:14.364Z,0.63
2023-04-18T00:09:14.428Z,0.65
2023-04-18T00:10:14.444Z,0.64
2023-04-18T00:11:14.509Z,0.66
2023-04-18T00:12:14.507Z,0.66
2023-04-18T00:13:14.532Z,0.64
2023-04-18T00:14:14.802Z,0.65
2023-04-18T00:15:14.596Z,0.65
2023-04-18T00:16:14.745Z,0.65
2023-04-18T00:17:14.744Z,0.66
2023-04-18T00:18:14.734Z,0.66
2023-04-18T00:19:14.768Z,0.64
2023-04-18T00:20:14.841Z,0.65
2023-04-18T00:21:14.885Z,0.64
2023-04-18T00:22:14.875Z,0.64
2023-04-18T00:23:14.945Z,0.63
2023-04-18T00:24:15.055Z,0.63
2023-04-18T00:25:15.017Z,0.64
2023-04-18T00:26:15.052Z,0.64
2023-04-18T00:27:15.063Z,0.64
2023-04-18T00:28:15.167Z,0.64
2023-04-18T00:29:15.168Z,0.62
2023-04-18T00:30:15.319Z,0.62
2023-04-18T00:31:15.311Z,0.63
2023-04-18T00:32:15.339Z,0.64
2023-04-18T00:33:15.364Z,0.65
2023-04-18T00:34:15.528Z,0.65
2023-04-18T00:35:15.449Z,0.65
2023-04-18T00:36:15.495Z,0.67
2023-04-18T00:37:15.553Z,0.67
2023-04-18T00:38:15.593Z,0.68
2023-04-18T00:39:15.647Z,0.69
2023-04-18T00:40:15.700Z,0.70
2023-04-18T00:41:15.770Z,0.70
2023-04-18T00:42:15.777Z,0.73
2023-04-18T00:43:15.853Z,0.71
2023-04-18T00:44:16.037Z,0.71
2023-04-18T00:45:15.959Z,0.71
2023-04-18T00:46:16.037Z,0.73
2023-04-18T00:47:16.073Z,0.75
2023-04-18T00:48:16.110Z,0.75
2023-04-18T00:49:16.150Z,0.76
2023-04-18T00:50:16.228Z,0.75
2023-04-18T00:51:16.276Z,0.75
2023-04-18T00:52:16.282Z,0.77
2023-04-18T00:53:16.356Z,0.76
2023-04-18T00:54:16.475Z,0.77
2023-04-18T00:55:16.487Z,0.77
2023-04-18T00:56:16.495Z,0.76
2023-04-18T00:57:16.559Z,0.78
2023-04-18T00:58:16.618Z,0.77
2023-04-18T00:59:16.670Z,0.77
2023-04-18T01:00:16.706Z,0.78
2023-04-18T01:01:16.795Z,0.79
2023-04-18T01:02:16.954Z,0.78
2023-04-18T01:03:16.937Z,0.75
2023-04-18T01:04:17.337Z,0.76
2023-04-18T01:05:16.956Z,0.76
2023-04-18T01:06:17.006Z,0.77
2023-04-18T01:07:17.097Z,0.73
2023-04-18T01:08:17.133Z,0.74
2023-04-18T01:09:17.222Z,0.74
2023-04-18T01:10:17.257Z,0.74
2023-04-18T01:11:17.301Z,0.74
2023-04-18T01:12:17.356Z,0.74
2023-04-18T01:13:17.403Z,0.73
2023-04-18T01:14:17.471Z,0.71
2023-04-18T01:15:17.489Z,0.69
2023-04-18T01:16:17.663Z,0.70
2023-04-18T01:17:17.606Z,0.69
2023-04-18T01:18:17.652Z,0.69
2023-04-18T01:19:17.735Z,0.69
2023-04-18T01:20:17.816Z,0.70
2023-04-18T01:21:17.857Z,0.69
2023-04-18T01:22:17.880Z,0.69
2023-04-18T01:23:17.912Z,0.70
2023-04-18T01:24:18.011Z,0.70
2023-04-18T01:25:18.022Z,0.69
2023-04-18T01:26:18.077Z,0.70
2023-04-18T01:27:18.162Z,0.70
2023-04-18T01:28:18.224Z,0.67
2023-04-18T01:29:18.259Z,0.68
2023-04-18T01:30:18.319Z,0.65
2023-04-18T01:31:18.418Z,0.66
2023-04-18T01:32:18.425Z,0.65
2023-04-18T01:33:18.522Z,0.67
2023-04-18T01:34:18.548Z,0.65
2023-04-18T01:35:18.603Z,0.65
2023-04-18T01:36:18.653Z,0.64
2023-04-18T01:37:18.727Z,0.65
2023-04-18T01:38:18.783Z,0.63
2023-04-18T01:39:18.880Z,0.64
2023-04-18T01:40:18.883Z,0.65
2023-04-18T01:41:18.961Z,0.64
2023-04-18T01:42:19.002Z,0.62
2023-04-18T01:43:19.084Z,0.61
2023-04-18T01:44:19.168Z,0.61
2023-04-18T01:45:19.187Z,0.60
2023-04-18T01:46:19.325Z,0.61
2023-04-18T01:47:19.349Z,0.61
2023-04-18T01:48:19.352Z,0.59
2023-04-18T01:49:19.459Z,0.59
2023-04-18T01:50:19.492Z,0.58
2023-04-18T01:51:19.545Z,0.58
2023-04-18T01:52:19.641Z,0.56
2023-04-18T01:53:19.667Z,0.56
2023-04-18T01:54:19.844Z,0.56
2023-04-18T01:55:19.802Z,0.55
2023-04-18T01:56:19.848Z,0.56
2023-04-18T01:57:19.912Z,0.56
2023-04-18T01:58:19.951Z,0.56
2023-04-18T01:59:20.028Z,0.56
2023-04-18T02:00:20.055Z,0.54
2023-04-18T02:01:20.233Z,0.54
2023-04-18T02:02:20.292Z,0.54
2023-04-18T02:03:20.437Z,0.54
2023-04-18T02:04:20.359Z,0.53
2023-04-18T02:05:20.402Z,0.54
2023-04-18T02:06:20.505Z,0.54
2023-04-18T02:07:20.457Z,0.55
2023-04-18T02:08:20.556Z,0.55
2023-04-18T02:09:20.626Z,0.55
2023-04-18T02:10:20.678Z,0.53
2023-04-18T02:11:20.765Z,0.52
2023-04-18T02:12:20.823Z,0.53
2023-04-18T02:13:20.869Z,0.53
2023-04-18T02:14:20.952Z,0.53
2023-04-18T02:15:21.011Z,0.52
2023-04-18T02:16:21.118Z,0.51
2023-04-18T02:17:21.184Z,0.51
2023-04-18T02:18:21.219Z,0.51
2023-04-18T02:19:21.307Z,0.50
2023-04-18T02:20:21.336Z,0.51
2023-04-18T02:21:21.366Z,0.52
2023-04-18T02:22:21.457Z,0.51
2023-04-18T02:23:21.553Z,0.50
2023-04-18T02:24:21.615Z,0.51
2023-04-18T02:25:21.673Z,0.51
2023-04-18T02:26:21.704Z,0.51
2023-04-18T02:27:21.799Z,0.51
2023-04-18T02:28:21.828Z,0.52
2023-04-18T02:29:21.883Z,0.51
2023-04-18T02:30:21.968Z,0.51
2023-04-18T02:31:22.060Z,0.50
2023-04-18T02:32:22.093Z,0.50
2023-04-18T02:33:22.154Z,0.51
2023-04-18T02:34:22.228Z,0.52
2023-04-18T02:35:22.262Z,0.51
2023-04-18T02:36:22.309Z,0.53
2023-04-18T02:37:22.370Z,0.53
2023-04-18T02:38:22.454Z,0.51
2023-04-18T02:39:22.482Z,0.53
2023-04-18T02:40:22.627Z,0.53
2023-04-18T02:41:22.666Z,0.54
2023-04-18T02:42:22.710Z,0.54
2023-04-18T02:43:22.773Z,0.54
2023-04-18T02:44:22.810Z,0.54
2023-04-18T02:45:22.908Z,0.54
2023-04-18T02:46:23.055Z,0.55
2023-04-18T02:47:23.021Z,0.56
2023-04-18T02:48:23.065Z,0.56
2023-04-18T02:49:23.133Z,0.56
2023-04-18T02:50:23.146Z,0.57
2023-04-18T02:51:23.200Z,0.57
2023-04-18T02:52:23.300Z,0.56
2023-04-18T02:53:23.291Z,0.57
2023-04-18T02:54:23.356Z,0.57
2023-04-18T02:55:23.430Z,0.57
2023-04-18T02:56:23.500Z,0.57
2023-04-18T02:57:23.563Z,0.57
2023-04-18T02:58:23.612Z,0.57
2023-04-18T02:59:23.684Z,0.56
2023-04-18T03:00:23.728Z,0.56
2023-04-18T03:01:23.751Z,0.57
2023-04-18T03:02:23.876Z,0.56
2023-04-18T03:03:23.932Z,0.54
2023-04-18T03:04:23.928Z,0.55
2023-04-18T03:05:23.920Z,0.56
2023-04-18T03:06:24.007Z,0.55
2023-04-18T03:07:24.038Z,0.55
2023-04-18T03:08:24.047Z,0.56
2023-04-18T03:09:24.097Z,0.54
2023-04-18T03:10:24.155Z,0.54
2023-04-18T03:11:24.161Z,0.55
2023-04-18T03:12:24.197Z,0.56
2023-04-18T03:13:24.233Z,0.56
2023-04-18T03:14:24.261Z,0.56
2023-04-18T03:15:24.277Z,0.57
2023-04-18T03:16:24.315Z,0.56
2023-04-18T03:17:24.308Z,0.57
2023-04-18T03:18:24.349Z,0.56
2023-04-18T03:19:24.298Z,0.56
2023-04-18T03:20:24.404Z,0.58
2023-04-18T03:21:24.357Z,0.56
2023-04-18T03:22:24.338Z,0.55
2023-04-18T03:23:24.397Z,0.56
2023-04-18T03:24:24.448Z,0.56
2023-04-18T03:25:24.400Z,0.55
2023-04-18T03:26:24.447Z,0.55
2023-04-18T03:27:24.474Z,0.56
2023-04-18T03:28:24.464Z,0.56
2023-04-18T03:29:24.448Z,0.55
2023-04-18T03:30:24.421Z,0.57
2023-04-18T03:31:24.467Z,0.57
2023-04-18T03:32:24.463Z,0.57
2023-04-18T03:33:24.401Z,0.58
2023-04-18T03:34:24.408Z,0.57
2023-04-18T03:35:24.412Z,0.58
2023-04-18T03:36:24.408Z,0.58
2023-04-18T03:37:24.392Z,0.59
2023-04-18T03:38:24.428Z,0.57
2023-04-18T03:39:24.396Z,0.59
2023-04-18T03:40:24.434Z,0.59
2023-04-18T03:41:24.426Z,0.59
2023-04-18T03:42:24.422Z,0.58
2023-04-18T03:43:24.403Z,0.57
2023-04-18T03:44:24.474Z,0.58
2023-04-18T03:45:24.421Z,0.59
2023-04-18T03:46:24.484Z,0.59
2023-04-18T03:47:24.414Z,0.60
2023-04-18T03:48:24.388Z,0.60
2023-04-18T03:49:24.366Z,0.60
2023-04-18T03:50:24.475Z,0.60
2023-04-18T03:51:24.408Z,0.59
2023-04-18T03:52:24.386Z,0.59
2023-04-18T03:53:24.368Z,0.58
2023-04-18T03:54:24.376Z,0.60
2023-04-18T03:55:24.356Z,0.60
2023-04-18T03:56:24.385Z,0.59
2023-04-18T03:57:24.357Z,0.59
2023-04-18T03:58:24.365Z,0.61
2023-04-18T03:59:24.362Z,0.61
2023-04-18T04:00:24.352Z,0.64
2023-04-18T04:01:24.341Z,0.61
2023-04-18T04:02:24.515Z,0.61
2023-04-18T04:03:24.476Z,0.64
2023-04-18T04:05:24.389Z,0.65
2023-04-18T04:06:24.341Z,0.64
2023-04-18T04:07:24.322Z,0.67
2023-04-18T04:08:25.098Z,0.66
2023-04-18T04:09:24.332Z,0.66
2023-04-18T04:10:24.374Z,0.67
2023-04-18T04:11:24.336Z,0.66
2023-04-18T04:12:24.330Z,0.67
2023-04-18T04:13:24.293Z,0.67
2023-04-18T04:14:24.298Z,0.67
2023-04-18T04:15:24.401Z,0.69
2023-04-18T04:16:24.320Z,0.70
2023-04-18T04:17:24.425Z,0.71
2023-04-18T04:18:24.337Z,0.70
2023-04-18T04:19:24.296Z,0.69
2023-04-18T04:20:24.376Z,0.73
2023-04-18T04:21:24.309Z,0.71
2023-04-18T04:22:24.316Z,0.72
2023-04-18T04:23:24.311Z,0.70
2023-04-18T04:24:24.315Z,0.71
2023-04-18T04:25:24.354Z,0.72
2023-04-18T04:26:24.307Z,0.72
2023-04-18T04:27:24.351Z,0.73
2023-04-18T04:28:24.311Z,0.72
2023-04-18T04:29:24.324Z,0.73
2023-04-18T04:30:24.335Z,0.73
2023-04-18T04:31:24.361Z,0.73
2023-04-18T04:32:24.358Z,0.74
2023-04-18T04:33:24.340Z,0.73
2023-04-18T04:34:24.330Z,0.74
2023-04-18T04:35:24.319Z,0.74
2023-04-18T04:36:24.344Z,0.75
2023-04-18T04:37:24.393Z,0.76
2023-04-18T04:38:24.356Z,0.75
2023-04-18T04:39:24.382Z,0.78
2023-04-18T04:40:24.390Z,0.76
2023-04-18T04:41:24.372Z,0.74
2023-04-18T04:42:24.368Z,0.76
2023-04-18T04:43:24.370Z,0.76
2023-04-18T04:44:24.429Z,0.78
2023-04-18T04:45:24.533Z,0.76
2023-04-18T04:46:24.455Z,0.80
2023-04-18T04:47:24.458Z,0.80
2023-04-18T04:48:24.423Z,0.83
2023-04-18T04:49:24.435Z,0.84
2023-04-18T04:50:24.435Z,0.85
2023-04-18T04:51:24.435Z,0.91
2023-04-18T04:52:24.464Z,0.92
2023-04-18T04:53:24.415Z,0.96
2023-04-18T04:54:24.416Z,0.97
2023-04-18T04:55:24.444Z,0.98
2023-04-18T04:56:24.405Z,0.97
2023-04-18T04:57:24.386Z,0.99
2023-04-18T04:58:24.407Z,1.04
2023-04-18T04:59:24.390Z,1.06
2023-04-18T05:00:24.410Z,1.09
2023-04-18T05:01:24.483Z,1.10
2023-04-18T05:02:24.563Z,1.12
2023-04-18T05:03:24.513Z,1.17
2023-04-18T05:04:24.606Z,1.16
2023-04-18T05:05:24.522Z,1.20
2023-04-18T05:06:24.436Z,1.21
2023-04-18T05:07:24.452Z,1.22
2023-04-18T05:08:24.471Z,1.25
2023-04-18T05:09:24.469Z,1.30
2023-04-18T05:10:24.493Z,1.27
2023-04-18T05:11:24.501Z,1.30
2023-04-18T05:12:24.522Z,1.30
2023-04-18T05:13:24.548Z,1.33
2023-04-18T05:14:24.548Z,1.33
2023-04-18T05:15:24.589Z,1.34
2023-04-18T05:16:24.614Z,1.34
2023-04-18T05:17:24.643Z,1.40
2023-04-18T05:18:24.585Z,1.38
2023-04-18T05:19:24.584Z,1.39
2023-04-18T05:20:24.618Z,1.39
2023-04-18T05:21:24.648Z,1.41
2023-04-18T05:22:24.665Z,1.40
2023-04-18T05:23:24.681Z,1.44
2023-04-18T05:24:24.741Z,1.43
2023-04-18T05:25:24.778Z,1.46
2023-04-18T05:26:24.829Z,1.47
2023-04-18T05:27:25.843Z,1.48
2023-04-18T05:28:24.880Z,1.47
2023-04-18T05:29:24.915Z,1.49
2023-04-18T05:30:25.323Z,1.50
2023-04-18T05:31:25.042Z,1.47
2023-04-18T05:32:25.011Z,1.49
2023-04-18T05:33:25.075Z,1.54
2023-04-18T05:34:25.105Z,1.56
2023-04-18T05:35:25.179Z,1.57
2023-04-18T05:36:25.195Z,1.60
2023-04-18T05:37:25.270Z,1.58
2023-04-18T05:38:25.296Z,1.61
2023-04-18T05:39:25.364Z,1.70
2023-04-18T05:40:25.825Z,1.73
2023-04-18T05:41:25.496Z,1.86
2023-04-18T05:42:25.535Z,1.86
2023-04-18T05:43:25.625Z,1.94
2023-04-18T05:44:25.728Z,2.09
2023-04-18T05:45:25.712Z,2.31
2023-04-18T05:46:25.828Z,2.35
2023-04-18T05:47:25.860Z,2.41
2023-04-18T05:48:25.895Z,2.67
2023-04-18T05:49:25.894Z,2.84
2023-04-18T05:50:25.946Z,2.88
2023-04-18T05:51:25.942Z,3.01
2023-04-18T05:52:25.993Z,3.16
2023-04-18T05:53:26.012Z,3.27
2023-04-18T05:54:26.042Z,3.43
2023-04-18T05:55:26.070Z,3.53
2023-04-18T05:56:26.114Z,3.67
2023-04-18T05:57:26.146Z,3.82
2023-04-18T05:58:26.165Z,3.86
2023-04-18T05:59:26.188Z,3.93
2023-04-18T06:00:26.226Z,4.01
2023-04-18T06:01:26.224Z,3.95
2023-04-18T06:02:26.407Z,3.93
2023-04-18T06:03:26.505Z,3.98
2023-04-18T06:04:26.381Z,4.06
2023-04-18T06:05:26.491Z,4.06
2023-04-18T06:06:26.374Z,4.00
2023-04-18T06:07:26.404Z,4.00
2023-04-18T06:08:26.448Z,3.98
2023-04-18T06:09:26.461Z,3.88
2023-04-18T06:10:26.515Z,3.90
2023-04-18T06:11:26.549Z,3.96
2023-04-18T06:12:26.586Z,3.85
2023-04-18T06:13:26.640Z,3.82
2023-04-18T06:14:26.657Z,3.65
2023-04-18T06:15:26.706Z,3.63
2023-04-18T06:16:26.876Z,3.65
2023-04-18T06:17:26.862Z,3.56
2023-04-18T06:18:26.863Z,3.39
2023-04-18T06:19:26.873Z,3.44
2023-04-18T06:20:26.949Z,3.46
2023-04-18T06:21:26.981Z,3.43
2023-04-18T06:22:27.043Z,3.40
2023-04-18T06:23:27.090Z,3.32
2023-04-18T06:24:27.966Z,3.37
2023-04-18T06:25:27.181Z,3.23
2023-04-18T06:26:27.208Z,3.19
2023-04-18T06:27:31.508Z,3.09
2023-04-18T06:28:27.263Z,3.10
2023-04-18T06:29:35.065Z,3.10
2023-04-18T06:30:27.255Z,3.10
2023-04-18T06:31:27.287Z,3.11
2023-04-18T06:32:27.265Z,3.11
2023-04-18T06:33:27.225Z,3.10
2023-04-18T06:34:27.210Z,3.07
2023-04-18T06:35:27.217Z,2.99
2023-04-18T06:36:27.187Z,2.99
2023-04-18T06:37:27.205Z,2.99
2023-04-18T06:38:27.189Z,3.01
2023-04-18T06:39:27.203Z,2.95
2023-04-18T06:40:27.231Z,2.97
2023-04-18T06:41:27.193Z,2.88
2023-04-18T06:42:27.160Z,2.90
2023-04-18T06:43:27.179Z,2.92
2023-04-18T06:44:27.166Z,2.88
2023-04-18T06:45:27.403Z,2.83
2023-04-18T06:46:27.301Z,2.81
2023-04-18T06:47:27.168Z,2.76
2023-04-18T06:48:27.134Z,2.74
2023-04-18T06:49:27.108Z,2.75
2023-04-18T06:50:27.143Z,2.73
2023-04-18T06:51:27.128Z,2.77
2023-04-18T06:52:27.089Z,2.69
2023-04-18T06:53:27.115Z,2.71
2023-04-18T06:54:27.086Z,2.74
2023-04-18T06:55:27.138Z,2.71
2023-04-18T06:56:27.084Z,2.68
2023-04-18T06:57:27.096Z,2.69
2023-04-18T06:58:27.062Z,2.70
2023-04-18T06:59:27.065Z,2.64
2023-04-18T07:00:27.055Z,2.67
2023-04-18T07:01:27.130Z,2.67
2023-04-18T07:02:27.156Z,2.62
2023-04-18T07:03:27.104Z,2.66
2023-04-18T07:04:27.086Z,2.63
2023-04-18T07:05:27.051Z,2.62
2023-04-18T07:06:27.009Z,2.59
2023-04-18T07:07:27.039Z,2.59
2023-04-18T07:08:27.029Z,2.61
2023-04-18T07:09:26.978Z,2.61
2023-04-18T07:10:26.973Z,2.61
2023-04-18T07:11:26.941Z,2.56
2023-04-18T07:12:26.956Z,2.53
2023-04-18T07:13:26.960Z,2.54
2023-04-18T07:14:27.002Z,2.61
2023-04-18T07:15:26.957Z,2.60
2023-04-18T07:16:26.949Z,2.55
2023-04-18T07:17:26.956Z,2.61
2023-04-18T07:18:37.320Z,2.58
2023-04-18T07:19:27.971Z,2.59
2023-04-18T07:20:26.977Z,2.59
2023-04-18T07:21:26.980Z,2.59
2023-04-18T07:22:26.975Z,2.59
2023-04-18T07:23:27.017Z,2.54
2023-04-18T07:24:26.937Z,2.57
2023-04-18T07:25:27.391Z,2.54
2023-04-18T07:26:26.941Z,2.48
2023-04-18T07:27:26.917Z,2.50
2023-04-18T07:28:26.908Z,2.48
2023-04-18T07:29:26.932Z,2.48
2023-04-18T07:30:26.915Z,2.43
2023-04-18T07:31:27.950Z,2.52
2023-04-18T07:32:26.932Z,2.50
2023-04-18T07:33:26.932Z,2.48
2023-04-18T07:34:27.003Z,2.48
2023-04-18T07:35:27.000Z,2.48
2023-04-18T07:36:27.076Z,2.49
2023-04-18T07:37:27.096Z,2.47
2023-04-18T07:38:27.097Z,2.47
2023-04-18T07:39:27.125Z,2.44
2023-04-18T07:40:27.448Z,2.49
2023-04-18T07:41:27.211Z,2.51
2023-04-18T07:42:27.228Z,2.58
2023-04-18T07:43:27.242Z,2.63
2023-04-18T07:44:27.275Z,2.81
2023-04-18T07:45:27.408Z,3.31
2023-04-18T07:46:27.356Z,3.81
2023-04-18T07:47:28.298Z,4.12
2023-04-18T07:48:27.326Z,3.57
2023-04-18T07:49:27.287Z,3.42
2023-04-18T07:50:27.454Z,4.13
2023-04-18T07:51:27.259Z,4.33
2023-04-18T07:52:27.324Z,4.82
2023-04-18T07:53:27.340Z,4.58
2023-04-18T07:54:27.398Z,4.95
2023-04-18T07:55:27.449Z,5.27
2023-04-18T07:56:27.491Z,6.08
2023-04-18T07:57:27.563Z,6.31
2023-04-18T07:58:27.623Z,6.60
2023-04-18T07:59:27.648Z,6.83
2023-04-18T08:00:27.814Z,6.98
2023-04-18T08:01:27.733Z,7.01
2023-04-18T08:02:28.470Z,7.63
2023-04-18T08:03:28.085Z,7.46
2023-04-18T08:04:30.108Z,7.80
2023-04-18T08:05:27.866Z,8.26
2023-04-18T08:06:27.774Z,8.35
2023-04-18T08:07:27.794Z,8.57
2023-04-18T08:08:27.782Z,8.67
2023-04-18T08:09:27.747Z,8.83
2023-04-18T08:10:27.803Z,9.18
2023-04-18T08:11:27.740Z,9.45
2023-04-18T08:12:27.739Z,9.71
2023-04-18T08:13:27.753Z,9.83
2023-04-18T08:14:27.748Z,10.01
2023-04-18T08:15:27.724Z,10.54
2023-04-18T08:16:27.750Z,10.55
2023-04-18T08:17:27.736Z,10.55
2023-04-18T08:18:27.689Z,10.96
2023-04-18T08:19:28.389Z,11.45
2023-04-18T08:20:27.673Z,11.32
2023-04-18T08:21:27.698Z,11.26
2023-04-18T08:22:27.666Z,11.19
2023-04-18T08:23:27.651Z,11.25
2023-04-18T08:24:27.653Z,11.41
2023-04-18T08:25:27.658Z,11.75
2023-04-18T08:26:27.645Z,12.52
2023-04-18T08:27:27.651Z,13.10
2023-04-18T08:28:27.645Z,12.35
2023-04-18T08:29:27.615Z,11.58
2023-04-18T08:30:27.608Z,11.57
2023-04-18T08:31:27.673Z,11.50
2023-04-18T08:32:27.630Z,11.43
2023-04-18T08:33:27.588Z,11.59
2023-04-18T08:34:27.579Z,11.66
2023-04-18T08:35:27.556Z,11.13
2023-04-18T08:36:27.930Z,10.94
2023-04-18T08:37:27.552Z,11.62
2023-04-18T08:38:28.330Z,10.61
2023-04-18T08:39:27.521Z,11.40
2023-04-18T08:40:27.582Z,11.20
2023-04-18T08:41:27.924Z,10.78
2023-04-18T08:42:27.515Z,11.08
2023-04-18T08:43:27.536Z,10.75
2023-04-18T08:44:27.510Z,11.02
2023-04-18T08:45:27.522Z,11.16
2023-04-18T08:46:27.955Z,11.06
2023-04-18T08:47:27.507Z,10.87
2023-04-18T08:48:27.532Z,10.16
2023-04-18T08:49:27.491Z,10.69
2023-04-18T08:50:27.536Z,9.84
2023-04-18T08:51:27.926Z,8.49
2023-04-18T08:52:27.648Z,7.94
2023-04-18T08:53:27.741Z,6.98
2023-04-18T08:54:27.767Z,7.13
2023-04-18T08:55:27.727Z,7.62
2023-04-18T08:56:27.914Z,8.11
2023-04-18T08:57:27.785Z,7.05
2023-04-18T08:58:27.798Z,6.75
2023-04-18T08:59:27.775Z,6.26
2023-04-18T09:00:27.831Z,6.24
2023-04-18T09:01:27.818Z,5.12
2023-04-18T09:02:27.814Z,5.39
2023-04-18T09:03:28.477Z,5.08
2023-04-18T09:04:27.981Z,5.29
2023-04-18T09:05:27.798Z,5.57
2023-04-18T09:06:28.003Z,5.83
2023-04-18T09:07:27.791Z,4.97
2023-04-18T09:08:27.769Z,4.55
2023-04-18T09:09:27.774Z,4.73
2023-04-18T09:10:27.765Z,5.22
2023-04-18T09:11:27.781Z,5.48
2023-04-18T09:12:27.753Z,5.60
2023-04-18T09:13:27.765Z,5.00
2023-04-18T09:14:27.724Z,5.12
2023-04-18T09:15:27.750Z,4.86
2023-04-18T09:16:28.028Z,5.11
2023-04-18T09:17:27.794Z,4.39
2023-04-18T09:18:27.710Z,4.87
2023-04-18T09:19:27.734Z,5.12
2023-04-18T09:20:27.732Z,5.23
2023-04-18T09:21:27.738Z,5.16
2023-04-18T09:22:27.738Z,5.12
2023-04-18T09:23:27.753Z,5.05
2023-04-18T09:24:27.768Z,5.04
2023-04-18T09:25:27.827Z,4.52
2023-04-18T09:26:27.807Z,4.99
2023-04-18T09:27:27.858Z,5.34
2023-04-18T09:28:27.899Z,5.61
2023-04-18T09:29:27.901Z,5.59
2023-04-18T09:30:27.901Z,5.69
2023-04-18T09:31:28.097Z,5.65
2023-04-18T09:32:28.027Z,5.46
2023-04-18T09:33:28.112Z,5.20
2023-04-18T09:34:28.107Z,5.11
2023-04-18T09:35:28.144Z,5.13
2023-04-18T09:36:28.495Z,5.38
2023-04-18T09:37:28.258Z,5.67
2023-04-18T09:38:28.301Z,5.33
2023-04-18T09:39:28.351Z,4.99
2023-04-18T09:40:28.397Z,4.98
2023-04-18T09:41:28.967Z,5.39
2023-04-18T09:42:29.026Z,4.98
2023-04-18T09:43:28.544Z,4.88
2023-04-18T09:44:28.605Z,5.05
2023-04-18T09:45:28.645Z,5.30
2023-04-18T09:46:28.996Z,4.27
2023-04-18T09:47:28.738Z,2.76
2023-04-18T09:48:28.743Z,3.23
2023-04-18T09:49:28.786Z,4.15
2023-04-18T09:50:28.846Z,4.60
2023-04-18T09:51:28.945Z,5.73
2023-04-18T09:52:28.979Z,5.99
2023-04-18T09:53:29.049Z,6.37
2023-04-18T09:54:29.046Z,6.55
2023-04-18T09:55:29.096Z,6.88
2023-04-18T09:56:29.102Z,6.77
2023-04-18T09:57:29.154Z,7.45
2023-04-18T09:58:29.176Z,7.69
2023-04-18T09:59:29.168Z,7.82
2023-04-18T10:00:29.186Z,8.15
2023-04-18T10:01:29.199Z,8.30
2023-04-18T10:02:29.289Z,8.36
2023-04-18T10:03:29.248Z,8.78
2023-04-18T10:04:29.256Z,9.03
2023-04-18T10:05:29.201Z,8.75
2023-04-18T10:06:29.186Z,8.90
2023-04-18T10:07:29.121Z,9.20
2023-04-18T10:08:29.162Z,9.14
2023-04-18T10:09:29.175Z,9.05
2023-04-18T10:10:29.166Z,8.75
2023-04-18T10:11:29.229Z,9.27
2023-04-18T10:12:29.140Z,9.27
2023-04-18T10:13:29.190Z,9.71
2023-04-18T10:14:29.175Z,9.54
2023-04-18T10:15:29.212Z,9.64
2023-04-18T10:16:29.306Z,9.64
2023-04-18T10:17:29.797Z,10.28
2023-04-18T10:18:29.283Z,11.87
2023-04-18T10:19:29.300Z,12.14
2023-04-18T10:20:29.293Z,12.52
2023-04-18T10:21:29.370Z,12.45
2023-04-18T10:22:29.371Z,12.71
2023-04-18T10:23:29.359Z,12.41
2023-04-18T10:24:29.388Z,13.07
2023-04-18T10:25:29.428Z,13.05
2023-04-18T10:26:29.599Z,13.93
2023-04-18T10:27:29.514Z,14.20
2023-04-18T10:28:29.601Z,14.50
2023-04-18T10:29:29.636Z,14.09
2023-04-18T10:30:29.688Z,15.18
2023-04-18T10:31:29.915Z,15.23
2023-04-18T10:32:29.842Z,14.31
2023-04-18T10:33:32.131Z,13.96
2023-04-18T10:34:30.094Z,14.19
2023-04-18T10:35:30.128Z,12.87
2023-04-18T10:36:30.508Z,12.07
2023-04-18T10:37:30.201Z,12.86
2023-04-18T10:38:30.278Z,10.89
2023-04-18T10:39:30.289Z,7.77
2023-04-18T10:40:30.290Z,8.58
2023-04-18T10:41:30.282Z,8.96
2023-04-18T10:42:30.333Z,9.52
2023-04-18T10:43:30.295Z,6.81
2023-04-18T10:44:30.334Z,8.04
2023-04-18T10:45:30.384Z,9.00
2023-04-18T10:46:32.260Z,8.96
2023-04-18T10:47:30.447Z,8.98
2023-04-18T10:48:30.418Z,8.66
2023-04-18T10:49:32.601Z,8.63
2023-04-18T10:50:30.498Z,8.76
2023-04-18T10:51:30.546Z,8.80
2023-04-18T10:52:30.614Z,8.48
2023-04-18T10:53:30.652Z,8.82
2023-04-18T10:54:30.678Z,8.88
2023-04-18T10:55:30.703Z,8.70
2023-04-18T10:56:30.731Z,8.26
2023-04-18T10:57:30.757Z,7.66
2023-04-18T10:58:30.742Z,7.25
2023-04-18T10:59:30.838Z,6.85
2023-04-18T11:00:30.859Z,6.71
2023-04-18T11:01:32.738Z,6.55
2023-04-18T11:02:30.912Z,6.26
2023-04-18T11:03:30.961Z,6.30
2023-04-18T11:04:30.970Z,6.21
2023-04-18T11:05:30.840Z,5.99
2023-04-18T11:06:30.834Z,6.13
2023-04-18T11:07:30.824Z,5.92
2023-04-18T11:08:30.850Z,4.32
2023-04-18T11:09:30.818Z,2.78
2023-04-18T11:10:30.854Z,2.71
2023-04-18T11:11:30.873Z,2.82
2023-04-18T11:12:30.861Z,2.90
2023-04-18T11:13:30.898Z,2.79
2023-04-18T11:14:30.908Z,2.90
2023-04-18T11:15:31.249Z,2.78
2023-04-18T11:16:31.056Z,2.78
2023-04-18T11:17:30.967Z,2.84
2023-04-18T11:18:30.936Z,2.82
2023-04-18T11:19:30.969Z,2.81
2023-04-18T11:20:30.981Z,2.54
2023-04-18T11:21:30.973Z,2.06
2023-04-18T11:22:30.981Z,2.00
2023-04-18T11:23:31.027Z,2.33
2023-04-18T11:24:31.077Z,2.37
2023-04-18T11:25:31.043Z,2.20
2023-04-18T11:26:31.045Z,2.11
2023-04-18T11:27:31.469Z,2.30
2023-04-18T11:28:31.080Z,2.21
2023-04-18T11:29:31.088Z,2.30
2023-04-18T11:30:31.214Z,2.27
2023-04-18T11:31:31.171Z,2.33
2023-04-18T11:32:31.564Z,2.06
2023-04-18T11:33:31.160Z,2.03
2023-04-18T11:34:31.159Z,2.35
2023-04-18T11:35:31.997Z,2.71
2023-04-18T11:36:31.229Z,2.35
2023-04-18T11:37:31.465Z,2.22
2023-04-18T11:38:31.294Z,2.45
2023-04-18T11:39:31.228Z,2.40
2023-04-18T11:40:31.255Z,2.38
2023-04-18T11:41:31.285Z,2.55
2023-04-18T11:42:31.312Z,2.54
2023-04-18T11:43:31.329Z,2.54
2023-04-18T11:44:31.930Z,2.77
2023-04-18T11:45:31.343Z,2.52
2023-04-18T11:46:31.427Z,2.32
2023-04-18T11:47:31.408Z,2.37
2023-04-18T11:48:31.417Z,2.51
2023-04-18T11:49:31.431Z,2.32
2023-04-18T11:50:31.459Z,2.57
2023-04-18T11:51:31.436Z,2.63
2023-04-18T11:52:31.445Z,2.71
2023-04-18T11:53:31.467Z,3.07
2023-04-18T11:54:31.446Z,3.15
2023-04-18T11:55:31.474Z,3.01
2023-04-18T11:56:31.459Z,3.26
2023-04-18T11:57:31.472Z,3.40
2023-04-18T11:58:31.441Z,3.23
2023-04-18T11:59:31.415Z,3.50
2023-04-18T12:00:31.476Z,3.70
2023-04-18T12:01:31.418Z,3.63
2023-04-18T12:02:31.543Z,3.62
2023-04-18T12:03:31.645Z,3.76
2023-04-18T12:04:31.612Z,3.79
2023-04-18T12:05:31.855Z,3.88
2023-04-18T12:06:31.544Z,3.94
2023-04-18T12:07:31.458Z,4.10
2023-04-18T12:08:31.463Z,3.75
2023-04-18T12:09:31.455Z,3.60
2023-04-18T12:10:31.465Z,4.01
2023-04-18T12:11:31.518Z,3.93
2023-04-18T12:12:31.590Z,3.74
2023-04-18T12:13:31.541Z,3.82
2023-04-18T12:14:31.580Z,3.92
2023-04-18T12:15:31.611Z,4.20
2023-04-18T12:16:31.731Z,4.37
2023-04-18T12:17:31.759Z,4.35
2023-04-18T12:18:31.733Z,4.29
2023-04-18T12:19:31.719Z,4.21
2023-04-18T12:20:31.740Z,4.19
2023-04-18T12:21:31.773Z,4.16
2023-04-18T12:22:31.791Z,4.37
2023-04-18T12:23:31.779Z,3.88
2023-04-18T12:24:31.764Z,4.17
2023-04-18T12:25:31.798Z,3.89
2023-04-18T12:26:31.828Z,2.44
2023-04-18T12:27:31.810Z,2.39
2023-04-18T12:28:31.814Z,2.81
2023-04-18T12:29:31.805Z,3.07
2023-04-18T12:30:31.813Z,3.00
2023-04-18T12:31:31.855Z,2.66
2023-04-18T12:32:31.853Z,2.65
2023-04-18T12:33:31.863Z,2.69
2023-04-18T12:34:31.820Z,2.75
2023-04-18T12:35:31.807Z,2.71
2023-04-18T12:36:31.784Z,2.74
2023-04-18T12:37:31.795Z,2.31
2023-04-18T12:38:31.803Z,2.07
2023-04-18T12:39:31.799Z,2.02
2023-04-18T12:40:31.800Z,1.77
2023-04-18T12:41:31.809Z,1.62
2023-04-18T12:42:31.770Z,1.65
2023-04-18T12:43:31.772Z,1.89
2023-04-18T12:44:31.783Z,1.77
2023-04-18T12:45:31.804Z,1.97
2023-04-18T12:46:31.829Z,1.99
2023-04-18T12:47:31.794Z,1.96
2023-04-18T12:48:31.813Z,2.05
2023-04-18T12:49:31.801Z,2.11
2023-04-18T12:50:31.803Z,1.98
2023-04-18T12:51:31.797Z,1.84
2023-04-18T12:52:31.791Z,1.66
2023-04-18T12:53:31.757Z,1.62
2023-04-18T12:54:31.771Z,1.64
2023-04-18T12:55:31.787Z,1.76
2023-04-18T12:56:31.797Z,1.80
2023-04-18T12:57:31.969Z,1.73
2023-04-18T12:58:31.770Z,1.67
2023-04-18T12:59:31.769Z,1.63
2023-04-18T13:00:31.824Z,1.59
2023-04-18T13:01:31.824Z,1.64
2023-04-18T13:02:31.906Z,1.72
2023-04-18T13:03:31.912Z,1.62
2023-04-18T13:04:32.249Z,1.70
2023-04-18T13:05:33.955Z,1.61
2023-04-18T13:06:31.827Z,1.59
2023-04-18T13:07:31.812Z,1.53
2023-04-18T13:08:31.841Z,1.57
2023-04-18T13:09:31.818Z,1.56
2023-04-18T13:10:31.868Z,1.65
2023-04-18T13:11:31.855Z,1.68
2023-04-18T13:12:31.846Z,1.41
2023-04-18T13:13:32.945Z,1.42
2023-04-18T13:14:31.951Z,1.44
2023-04-18T13:15:31.939Z,1.32
2023-04-18T13:16:31.978Z,1.43
2023-04-18T13:17:31.945Z,1.54